aviador You're here:

PKWA Decoded Metar

KWAJALEIN in MARSHALL ISLANDS
Report Time2017-11-24 02:00:00
UTC Time2017-11-24 02:10:10
Flight Rules vfr VFR
Wind070° at 08 kt
W.Decomp.*RWY 06: 8.0 kt HW 0.1 kt RCW
W.Rank070° ranks 1
Current wind is below 070° avg. (12.7)
Visibility9999 m
Phenomena:N/A
Clouds:Scattered 019 Hf
Scattered 024 Hf
Scattered 029 Hf
Expected CloudBase > 2,000 ft AGL from Temp-Dew spread
CeilingNone
Temp31°C (ISA +16)
Dew Point26°C (75% RH)
Heat Index39.2°C
QNH1006 hPa
Density Alt2,536 ft
Elevation26 ft
Report Wrong Elevation
Raw Report
METAR PKWA 240200Z AUTO 07008KT 10SM SCT019 SCT024 SCT029 31/26 A2972
RMK AO2 T03130255=

Extra information for PKWA:More info

Metar Taf Metar & Taf Last 4 Metars F.Rules Stats Wind Profile Meteogram Temp Stats Airport Information Weather charts Add Link Nearby VenuesMetar ALERT Operation Metar Decoded Social comments